Time;durP1;ratioP1;P1;durP2;ratioP2;P2;SDS_P1;SDS_P2;PMS_P1;PMS_P2;Temp;Humidity;BMP_temperature;BMP_pressure;BME280_temperature;BME280_humidity;BME280_pressure;Samples;Min_cycle;Max_cycle;Signal;HPM_P1;HPM_P2
2022/01/09 00:00:33;;;;;;;7.18;2.15;;;9.60;74.30;;;;;;6059182;23;20026;-93
2022/01/09 00:02:59;;;;;;;6.68;2.40;;;9.60;74.30;;;;;;6060927;23;20465;-94
2022/01/09 00:05:25;;;;;;;11.13;2.15;;;9.80;74.60;;;;;;6059645;23;20044;-92
2022/01/09 00:07:53;;;;;;;13.23;2.08;;;10.10;74.70;;;;;;6061213;23;20236;-93
2022/01/09 00:10:19;;;;;;;5.32;1.73;;;9.60;74.60;;;;;;6081219;23;20010;-93
2022/01/09 00:12:45;;;;;;;8.05;2.38;;;9.80;74.70;;;;;;6083555;23;20018;-93
2022/01/09 00:15:11;;;;;;;8.27;2.97;;;10.10;74.80;;;;;;6090514;23;20025;-92
2022/01/09 00:17:37;;;;;;;7.35;1.50;;;9.60;74.60;;;;;;6099721;23;20006;-93
2022/01/09 00:20:06;;;;;;;9.43;2.22;;;9.60;74.50;;;;;;6068905;23;20022;-92
2022/01/09 00:25:06;;;;;;;6.22;1.50;;;9.90;74.70;;;;;;6084721;23;20014;-92
2022/01/09 00:27:38;;;;;;;8.10;2.10;;;9.60;74.60;;;;;;6057651;23;20018;-93
2022/01/09 00:30:10;;;;;;;5.22;1.40;;;9.60;74.60;;;;;;6058040;23;20022;-92
2022/01/09 00:32:37;;;;;;;14.32;1.60;;;9.60;74.10;;;;;;6035929;23;20017;-93
2022/01/09 00:35:05;;;;;;;6.45;1.40;;;10.10;74.60;;;;;;6057424;23;20014;-93
2022/01/09 00:37:31;;;;;;;8.90;1.70;;;9.60;74.30;;;;;;6058838;23;20068;-93
2022/01/09 00:39:57;;;;;;;7.78;1.42;;;9.90;74.50;;;;;;6080382;23;20006;-92
2022/01/09 00:42:23;;;;;;;7.80;1.35;;;9.60;74.30;;;;;;6081643;23;20014;-93
2022/01/09 00:44:49;;;;;;;6.20;1.65;;;9.60;74.20;;;;;;6082420;23;20018;-93
2022/01/09 00:47:15;;;;;;;7.97;1.95;;;10.00;74.50;;;;;;6081613;23;20025;-93
2022/01/09 00:49:40;;;;;;;13.80;2.55;;;9.60;74.20;;;;;;6059093;23;20097;-92
2022/01/09 00:52:06;;;;;;;5.60;2.30;;;9.80;74.30;;;;;;6082304;23;20006;-93
2022/01/09 00:54:35;;;;;;;13.40;1.50;;;9.50;74.10;;;;;;6082813;23;20374;-94
2022/01/09 00:57:00;;;;;;;8.93;1.73;;;9.80;74.30;;;;;;6083678;23;20022;-93
2022/01/09 00:59:26;;;;;;;5.93;1.30;;;9.50;74.10;;;;;;6081747;23;20006;-93
2022/01/09 01:01:52;;;;;;;6.00;1.25;;;9.90;74.40;;;;;;6060408;23;20037;-92
2022/01/09 01:04:18;;;;;;;7.82;1.45;;;9.60;74.20;;;;;;6085325;23;20033;-92
2022/01/09 01:06:43;;;;;;;8.07;1.70;;;9.60;74.20;;;;;;6060043;23;20462;-93
2022/01/09 01:09:09;;;;;;;8.43;1.98;;;9.90;74.20;;;;;;6080442;23;20017;-91
2022/01/09 01:11:35;;;;;;;7.22;1.23;;;9.60;74.00;;;;;;6082701;23;20360;-94
2022/01/09 01:14:01;;;;;;;9.35;1.40;;;9.60;73.90;;;;;;6080864;23;20030;-92
2022/01/09 01:16:26;;;;;;;10.77;1.67;;;9.60;73.90;;;;;;6082571;23;20026;-93
2022/01/09 01:18:54;;;;;;;5.13;1.10;;;9.60;73.90;;;;;;6082798;23;20122;-93
2022/01/09 01:21:23;;;;;;;9.32;1.23;;;10.10;74.20;;;;;;6085339;23;20034;-92
2022/01/09 01:23:50;;;;;;;6.43;1.70;;;9.60;73.90;;;;;;6092454;23;20010;-92
2022/01/09 01:26:16;;;;;;;8.30;1.75;;;9.60;73.80;;;;;;6071148;23;20080;-92
2022/01/09 01:28:42;;;;;;;10.65;1.58;;;9.60;73.80;;;;;;6063232;23;20033;-94
2022/01/09 01:31:08;;;;;;;6.07;1.50;;;9.60;73.70;;;;;;6085288;23;20084;-93
2022/01/09 01:33:33;;;;;;;10.88;1.23;;;9.80;73.80;;;;;;6083836;23;20093;-93
2022/01/09 01:36:01;;;;;;;8.65;1.50;;;10.10;73.90;;;;;;6061008;23;20018;-94
2022/01/09 01:38:27;;;;;;;8.75;1.45;;;9.70;73.70;;;;;;6086377;23;20101;-93
2022/01/09 01:40:53;;;;;;;10.60;1.33;;;9.60;73.60;;;;;;6084581;23;20846;-92
2022/01/09 01:43:18;;;;;;;15.95;2.50;;;9.60;73.60;;;;;;6059865;23;20018;-94
2022/01/09 01:45:44;;;;;;;12.93;1.65;;;10.00;73.70;;;;;;6085943;23;20124;-93
2022/01/09 01:48:11;;;;;;;6.63;1.30;;;9.60;73.50;;;;;;6059938;23;20482;-93
2022/01/09 01:50:38;;;;;;;6.80;1.08;;;9.60;73.60;;;;;;6094593;23;20079;-92
2022/01/09 01:53:14;;;;;;;3.85;0.70;;;9.60;73.60;;;;;;6074117;23;20014;-93
2022/01/09 01:55:41;;;;;;;8.48;1.27;;;9.60;73.50;;;;;;6044251;23;20017;-93
2022/01/09 01:58:13;;;;;;;4.78;1.25;;;9.50;73.60;;;;;;6060204;23;20041;-92
2022/01/09 02:00:42;;;;;;;8.60;1.42;;;10.00;73.90;;;;;;6060294;23;20093;-93
2022/01/09 02:03:09;;;;;;;5.15;1.00;;;9.50;73.70;;;;;;6059209;23;20010;-92
2022/01/09 02:05:36;;;;;;;6.63;1.40;;;9.90;74.00;;;;;;6061249;23;20014;-92
2022/01/09 02:08:03;;;;;;;5.65;0.95;;;9.80;74.10;;;;;;6059635;23;20010;-93
2022/01/09 02:10:30;;;;;;;5.78;1.30;;;9.50;73.90;;;;;;6059525;23;20030;-93
2022/01/09 02:12:57;;;;;;;10.18;1.63;;;9.80;74.20;;;;;;6083126;23;20041;-93
2022/01/09 02:15:46;;;;;;;9.88;1.63;;;9.50;74.00;;;;;;6083213;23;20025;-93
2022/01/09 02:18:20;;;;;;;8.77;1.27;;;9.50;74.00;;;;;;6058928;23;20006;-92
2022/01/09 02:20:51;;;;;;;10.45;1.83;;;9.50;73.90;;;;;;6059261;23;20014;-94
2022/01/09 02:23:21;;;;;;;5.20;1.10;;;9.50;73.90;;;;;;6058510;23;20014;-93
2022/01/09 02:25:48;;;;;;;5.40;1.58;;;9.50;74.00;;;;;;6037215;23;20022;-93
2022/01/09 02:28:15;;;;;;;7.47;1.15;;;9.50;74.10;;;;;;6085923;23;20021;-93
2022/01/09 02:30:42;;;;;;;10.68;1.60;;;9.40;74.00;;;;;;6060510;23;20453;-94
2022/01/09 02:33:11;;;;;;;1.83;0.60;;;9.40;74.00;;;;;;6060599;23;20010;-92
2022/01/09 02:35:37;;;;;;;9.75;1.58;;;9.40;74.10;;;;;;6059631;23;20018;-91
2022/01/09 02:38:05;;;;;;;8.43;1.98;;;9.40;74.10;;;;;;6060224;23;20342;-92
2022/01/09 02:40:31;;;;;;;9.02;1.77;;;9.40;74.20;;;;;;6034073;23;20013;-93
2022/01/09 02:42:57;;;;;;;6.50;1.65;;;9.80;74.40;;;;;;6057913;23;20101;-93
2022/01/09 02:45:25;;;;;;;8.65;1.40;;;9.40;74.30;;;;;;6082957;23;20037;-93
2022/01/09 02:47:54;;;;;;;7.13;1.70;;;9.40;74.30;;;;;;6059883;23;20213;-93
2022/01/09 02:53:26;;;;;;;6.05;1.45;;;9.40;74.20;;;;;;6060278;23;20022;-93
2022/01/09 02:55:43;;;;;;;7.00;1.90;;;9.50;74.20;;;;;;6066295;23;20659;-93
2022/01/09 02:58:09;;;;;;;5.50;1.58;;;9.80;74.40;;;;;;6058106;23;20006;-92
2022/01/09 03:00:40;;;;;;;6.15;1.30;;;9.50;74.20;;;;;;6061255;23;20021;-92
2022/01/09 03:03:06;;;;;;;7.70;1.85;;;9.70;74.30;;;;;;6058041;23;20014;-92
2022/01/09 03:05:32;;;;;;;4.93;1.60;;;9.40;74.20;;;;;;6083710;23;20033;-92
2022/01/09 03:07:58;;;;;;;12.88;1.95;;;9.40;74.20;;;;;;6056223;23;20009;-93
2022/01/09 03:10:24;;;;;;;7.18;1.20;;;9.70;74.40;;;;;;6085033;23;20022;-93
2022/01/09 03:12:52;;;;;;;7.03;2.10;;;9.40;74.30;;;;;;6082300;23;20011;-91
2022/01/09 03:15:18;;;;;;;5.63;1.58;;;9.70;74.40;;;;;;6061173;23;20046;-93
2022/01/09 03:17:44;;;;;;;6.07;1.55;;;9.40;74.20;;;;;;6034493;23;20349;-93
2022/01/09 03:20:18;;;;;;;7.80;1.58;;;9.40;74.20;;;;;;6058015;23;20020;-93
2022/01/09 03:22:44;;;;;;;9.90;2.10;;;9.40;74.20;;;;;;6057519;23;20093;-93
2022/01/09 03:25:10;;;;;;;7.82;1.52;;;9.80;75.00;;;;;;6083268;23;20018;-94
2022/01/09 03:27:38;;;;;;;4.95;1.02;;;9.50;74.30;;;;;;6097495;23;20017;-93
2022/01/09 03:30:07;;;;;;;6.97;1.58;;;9.40;74.30;;;;;;6080175;23;20022;-91
2022/01/09 03:32:35;;;;;;;6.25;1.80;;;9.40;74.30;;;;;;6069501;23;20038;-92
2022/01/09 03:35:01;;;;;;;3.85;1.42;;;9.40;74.40;;;;;;6072313;23;20025;-93
2022/01/09 03:37:26;;;;;;;5.72;1.00;;;9.40;74.40;;;;;;6094497;23;20013;-93
2022/01/09 03:39:53;;;;;;;9.15;1.75;;;9.60;74.40;;;;;;6068060;23;20014;-93
2022/01/09 03:42:19;;;;;;;11.73;1.40;;;9.40;74.40;;;;;;6063011;23;20101;-92
2022/01/09 03:44:44;;;;;;;12.90;2.13;;;9.30;74.50;;;;;;6062248;23;20049;-93
2022/01/09 03:47:10;;;;;;;18.85;3.30;;;9.40;74.70;;;;;;6061846;23;20009;-93
2022/01/09 03:49:36;;;;;;;10.70;3.28;;;9.30;74.70;;;;;;6084939;23;20512;-93
2022/01/09 03:52:02;;;;;;;12.25;3.22;;;9.30;74.80;;;;;;6061622;23;20037;-92
2022/01/09 03:54:28;;;;;;;8.82;2.47;;;9.30;74.90;;;;;;6087454;23;20077;-93
2022/01/09 03:56:54;;;;;;;11.45;3.17;;;9.70;75.30;;;;;;6061805;23;20033;-93
2022/01/09 03:59:20;;;;;;;5.50;1.13;;;9.20;75.00;;;;;;6060910;23;20009;-93
2022/01/09 04:01:46;;;;;;;18.33;3.13;;;9.20;75.10;;;;;;6087108;23;20010;-93
2022/01/09 04:04:12;;;;;;;7.00;2.13;;;9.20;75.10;;;;;;6062826;23;20017;-94
2022/01/09 04:06:45;;;;;;;7.53;1.73;;;9.20;75.10;;;;;;6087191;23;20006;-93
2022/01/09 04:09:18;;;;;;;9.75;1.63;;;9.60;75.40;;;;;;6063830;23;20508;-93
2022/01/09 04:11:46;;;;;;;9.52;1.75;;;9.40;75.30;;;;;;6087129;23;20450;-93
2022/01/09 04:14:13;;;;;;;5.25;1.10;;;9.20;75.30;;;;;;6062370;23;20045;-93
2022/01/09 04:16:39;;;;;;;5.95;1.10;;;9.50;75.60;;;;;;6086016;23;20537;-93
2022/01/09 04:19:04;;;;;;;11.02;1.30;;;9.20;75.50;;;;;;6061718;23;20005;-92
2022/01/09 04:21:30;;;;;;;4.60;1.23;;;9.50;75.90;;;;;;6086252;23;20076;-93
2022/01/09 04:23:56;;;;;;;7.70;0.88;;;9.50;75.80;;;;;;6085537;23;20013;-93
2022/01/09 04:26:22;;;;;;;8.68;1.30;;;9.10;75.60;;;;;;6060611;23;20029;-93
2022/01/09 04:28:48;;;;;;;5.97;1.00;;;9.10;75.70;;;;;;6083959;23;20013;-93
2022/01/09 04:31:15;;;;;;;7.22;1.25;;;9.10;75.80;;;;;;6086404;23;20034;-93
2022/01/09 04:33:42;;;;;;;9.65;1.52;;;9.30;76.00;;;;;;6062197;23;20010;-93
2022/01/09 04:36:08;;;;;;;7.65;1.60;;;9.50;76.10;;;;;;6060672;23;20016;-94
2022/01/09 04:38:33;;;;;;;9.25;0.80;;;9.10;75.80;;;;;;6084140;23;20084;-92
2022/01/09 04:40:59;;;;;;;5.95;1.08;;;9.10;75.90;;;;;;6086345;23;20121;-93
2022/01/09 04:43:27;;;;;;;12.43;1.58;;;9.10;75.90;;;;;;6059707;23;20185;-93
2022/01/09 04:45:53;;;;;;;4.93;0.88;;;9.40;76.10;;;;;;6061474;23;20030;-92
2022/01/09 04:48:18;;;;;;;5.18;1.02;;;9.40;76.00;;;;;;6061185;23;20010;-92
2022/01/09 04:50:45;;;;;;;7.80;1.60;;;9.10;75.80;;;;;;6061541;23;20034;-93
2022/01/09 04:53:11;;;;;;;12.88;2.17;;;9.10;75.90;;;;;;6086402;23;20018;-93
2022/01/09 04:55:41;;;;;;;5.93;1.10;;;9.10;75.90;;;;;;6133224;23;20033;-92
2022/01/09 04:58:08;;;;;;;7.82;1.23;;;9.10;75.80;;;;;;6108302;23;20501;-94
2022/01/09 05:00:34;;;;;;;11.73;1.33;;;9.10;75.90;;;;;;6094318;23;20037;-93
2022/01/09 05:03:01;;;;;;;8.27;1.35;;;9.10;75.90;;;;;;6064512;23;20122;-92
2022/01/09 05:05:26;;;;;;;8.50;1.50;;;9.10;76.00;;;;;;6049653;23;20097;-94
2022/01/09 05:07:52;;;;;;;10.60;1.70;;;9.10;76.00;;;;;;6044649;23;20006;-92
2022/01/09 05:10:18;;;;;;;6.93;1.73;;;9.50;76.30;;;;;;6056315;23;20015;-92
2022/01/09 05:12:44;;;;;;;6.00;1.40;;;9.20;76.10;;;;;;6034292;23;20173;-93
2022/01/09 05:15:12;;;;;;;6.60;1.70;;;9.00;76.00;;;;;;6032018;23;20014;-93
2022/01/09 05:17:39;;;;;;;10.85;1.60;;;9.00;76.10;;;;;;6056638;23;20065;-93
2022/01/09 05:20:05;;;;;;;8.80;1.52;;;9.00;76.10;;;;;;6033196;23;20015;-92
2022/01/09 05:22:31;;;;;;;6.55;1.27;;;9.00;76.20;;;;;;6031523;23;20010;-92
2022/01/09 05:25:06;;;;;;;8.85;1.85;;;9.10;76.30;;;;;;6033260;23;20042;-94
2022/01/09 05:27:33;;;;;;;9.25;1.92;;;9.20;76.30;;;;;;6036741;23;20017;-93
2022/01/09 05:29:59;;;;;;;11.57;2.10;;;9.30;76.40;;;;;;6032121;23;20017;-93
2022/01/09 05:32:25;;;;;;;6.47;1.27;;;9.10;76.20;;;;;;6032904;23;20374;-94
2022/01/09 05:34:51;;;;;;;5.38;1.40;;;9.00;76.10;;;;;;6032248;23;20024;-93
2022/01/09 05:37:17;;;;;;;8.07;2.53;;;9.00;76.10;;;;;;6056888;23;20021;-92
2022/01/09 05:39:43;;;;;;;7.75;1.30;;;9.00;76.10;;;;;;6056870;23;20030;-93
2022/01/09 05:42:12;;;;;;;2.92;0.68;;;9.00;76.10;;;;;;6054636;23;20026;-93
2022/01/09 05:44:37;;;;;;;7.85;1.58;;;9.50;76.40;;;;;;6054330;23;20006;-93
2022/01/09 05:47:04;;;;;;;7.35;1.02;;;9.00;76.10;;;;;;6059042;23;20658;-92
2022/01/09 05:49:30;;;;;;;9.10;1.13;;;9.10;76.10;;;;;;6041839;23;20017;-92
2022/01/09 05:51:56;;;;;;;5.88;0.98;;;9.30;76.20;;;;;;6040467;23;20039;-92
2022/01/09 05:54:21;;;;;;;6.57;1.13;;;9.40;76.30;;;;;;6059107;23;20431;-93
2022/01/09 05:56:47;;;;;;;8.75;1.40;;;9.00;76.10;;;;;;6031328;23;20025;-93
2022/01/09 05:59:13;;;;;;;5.82;1.20;;;9.40;76.30;;;;;;6029796;23;20010;-92
2022/01/09 06:01:39;;;;;;;7.35;1.20;;;9.00;76.10;;;;;;6056267;23;20070;-92
2022/01/09 06:04:05;;;;;;;4.55;0.88;;;9.00;76.10;;;;;;6032163;23;20024;-93
2022/01/09 06:06:32;;;;;;;10.70;1.40;;;9.00;76.10;;;;;;6055367;23;20022;-93
2022/01/09 06:08:58;;;;;;;4.63;1.02;;;9.30;76.20;;;;;;6031390;23;20014;-93
2022/01/09 06:11:24;;;;;;;7.78;1.38;;;9.60;76.50;;;;;;6056855;23;20447;-92
2022/01/09 06:13:50;;;;;;;5.20;1.25;;;9.10;76.20;;;;;;6055754;23;20469;-94
2022/01/09 06:16:16;;;;;;;9.20;1.25;;;9.20;76.10;;;;;;6033634;23;20389;-94
2022/01/09 06:18:41;;;;;;;7.75;0.95;;;9.10;76.00;;;;;;6034012;23;20002;-93
2022/01/09 06:21:07;;;;;;;4.18;0.57;;;9.00;75.90;;;;;;6033581;23;20073;-93
2022/01/09 06:23:33;;;;;;;4.55;0.65;;;9.00;75.90;;;;;;6058052;23;20334;-93
2022/01/09 06:25:59;;;;;;;5.75;0.93;;;9.00;75.90;;;;;;6035993;23;20029;-93
2022/01/09 06:28:25;;;;;;;4.55;0.63;;;9.10;76.00;;;;;;6032609;23;20014;-92
2022/01/09 06:30:51;;;;;;;1.13;0.38;;;9.20;76.10;;;;;;6033943;23;20018;-94
2022/01/09 06:33:17;;;;;;;1.90;0.60;;;9.30;76.20;;;;;;6056933;23;20011;-93
2022/01/09 06:35:44;;;;;;;6.53;0.90;;;9.50;76.30;;;;;;6058651;23;20006;-93
2022/01/09 06:38:10;;;;;;;4.20;1.67;;;9.20;76.70;;;;;;6037763;23;20481;-92
2022/01/09 06:40:36;;;;;;;4.72;1.00;;;9.00;76.60;;;;;;6056034;23;20010;-94
2022/01/09 06:43:03;;;;;;;2.55;0.80;;;9.00;76.00;;;;;;6079664;23;20037;-93
2022/01/09 06:45:29;;;;;;;6.90;0.82;;;9.40;76.20;;;;;;6034077;23;20018;-93
2022/01/09 06:47:57;;;;;;;6.90;1.20;;;9.00;76.10;;;;;;6034296;23;20010;-93
2022/01/09 06:50:23;;;;;;;1.75;0.75;;;9.00;76.00;;;;;;6033057;23;20097;-92
2022/01/09 06:52:49;;;;;;;4.22;1.00;;;9.00;76.10;;;;;;6032153;23;20024;-93
2022/01/09 06:55:15;;;;;;;3.08;0.63;;;9.00;76.10;;;;;;6054412;23;20046;-93
2022/01/09 06:57:42;;;;;;;3.00;0.95;;;9.50;76.40;;;;;;6056493;23;20366;-93
2022/01/09 07:00:11;;;;;;;8.07;2.15;;;9.00;76.10;;;;;;6031599;23;20075;-93
2022/01/09 07:02:36;;;;;;;2.83;1.10;;;9.00;76.10;;;;;;6055685;23;20443;-93
2022/01/09 07:05:04;;;;;;;4.60;0.77;;;9.30;76.50;;;;;;6058499;23;20101;-93
2022/01/09 07:07:30;;;;;;;6.05;0.95;;;9.00;76.20;;;;;;6033206;23;20404;-93
2022/01/09 07:09:55;;;;;;;7.57;0.80;;;9.40;76.50;;;;;;6055651;23;20034;-93
2022/01/09 07:12:21;;;;;;;10.48;1.05;;;9.00;76.20;;;;;;6056622;23;20415;-92
2022/01/09 07:14:47;;;;;;;14.48;3.00;;;9.00;76.30;;;;;;6034242;23;20014;-93
2022/01/09 07:17:13;;;;;;;8.52;4.15;;;9.20;76.30;;;;;;6056292;23;20014;-93
2022/01/09 07:19:39;;;;;;;10.95;4.45;;;9.00;76.20;;;;;;6032453;23;20089;-93
2022/01/09 07:22:06;;;;;;;13.82;7.13;;;9.50;76.40;;;;;;6032852;23;20045;-93
2022/01/09 07:24:32;;;;;;;11.43;5.00;;;9.20;76.20;;;;;;6031307;23;20143;-93
2022/01/09 07:26:58;;;;;;;11.05;4.28;;;9.10;76.20;;;;;;6055866;23;20014;-93
2022/01/09 07:29:24;;;;;;;10.52;4.20;;;9.30;76.30;;;;;;6031342;23;20137;-94
2022/01/09 07:31:53;;;;;;;9.50;4.57;;;9.10;76.10;;;;;;6033163;23;20078;-94
2022/01/09 07:34:20;;;;;;;5.45;2.53;;;9.00;76.20;;;;;;6035559;23;20096;-93
2022/01/09 07:36:46;;;;;;;7.28;2.30;;;9.00;76.20;;;;;;6033145;23;20038;-93
2022/01/09 07:39:12;;;;;;;5.40;1.52;;;9.00;76.30;;;;;;6031712;23;20517;-93
2022/01/09 07:41:38;;;;;;;8.63;1.45;;;9.50;76.60;;;;;;6032563;23;20019;-95
2022/01/09 07:44:04;;;;;;;9.02;1.70;;;9.00;76.40;;;;;;6056220;23;20073;-91
2022/01/09 07:46:30;;;;;;;6.78;1.80;;;9.00;76.40;;;;;;6034827;23;20026;-93
2022/01/09 07:48:55;;;;;;;3.10;1.05;;;9.00;76.40;;;;;;6030477;23;20014;-93
2022/01/09 07:51:21;;;;;;;4.43;0.98;;;9.00;76.40;;;;;;6033239;23;20025;-92
2022/01/09 07:53:47;;;;;;;4.95;1.50;;;9.00;76.50;;;;;;6057192;23;20401;-94
2022/01/09 07:56:13;;;;;;;4.65;1.00;;;9.10;76.60;;;;;;6032227;23;20374;-93
2022/01/09 07:58:39;;;;;;;5.60;1.10;;;9.50;76.70;;;;;;6036483;23;20010;-93
2022/01/09 08:01:05;;;;;;;2.33;1.38;;;9.00;76.40;;;;;;6057902;23;20015;-91
2022/01/09 08:03:31;;;;;;;3.85;1.23;;;9.00;76.30;;;;;;6060150;23;20475;-93
2022/01/09 08:05:57;;;;;;;5.82;1.23;;;9.40;76.60;;;;;;6032867;23;20034;-93
2022/01/09 08:08:23;;;;;;;5.40;1.10;;;9.00;76.30;;;;;;6031851;23;20065;-93
2022/01/09 08:10:48;;;;;;;9.35;2.47;;;9.00;76.30;;;;;;6031218;23;20054;-92
2022/01/09 08:13:14;;;;;;;9.00;2.22;;;9.10;76.50;;;;;;6055337;23;20418;-93
2022/01/09 08:15:40;;;;;;;8.07;2.47;;;9.50;76.70;;;;;;6043853;23;20038;-93
2022/01/09 08:18:06;;;;;;;7.97;2.40;;;9.10;76.40;;;;;;6069529;23;20062;-93
2022/01/09 08:20:32;;;;;;;16.10;2.20;;;9.20;76.50;;;;;;6057326;23;20011;-94
2022/01/09 08:22:58;;;;;;;8.30;1.50;;;9.40;76.60;;;;;;6031447;23;20034;-93
2022/01/09 08:25:24;;;;;;;7.72;1.42;;;9.10;76.50;;;;;;6053273;23;20018;-94
2022/01/09 08:27:50;;;;;;;6.75;1.30;;;9.10;76.50;;;;;;6028548;23;20011;-93
2022/01/09 08:30:18;;;;;;;4.80;1.00;;;9.10;76.50;;;;;;6031321;23;20010;-94
2022/01/09 08:32:45;;;;;;;9.45;1.42;;;9.10;76.50;;;;;;6056686;23;20105;-93
2022/01/09 08:35:11;;;;;;;4.22;1.38;;;9.20;76.50;;;;;;6054784;23;20434;-93
2022/01/09 08:37:41;;;;;;;6.72;1.35;;;9.10;76.40;;;;;;6029528;23;20002;-93
2022/01/09 08:40:12;;;;;;;8.38;1.98;;;9.10;76.40;;;;;;6033083;23;20040;-93
2022/01/09 08:42:40;;;;;;;3.75;1.23;;;9.10;76.40;;;;;;6032295;23;20009;-93
2022/01/09 08:45:07;;;;;;;4.13;1.20;;;9.10;76.40;;;;;;6054652;23;20237;-93
2022/01/09 08:47:37;;;;;;;5.57;1.40;;;9.10;76.40;;;;;;6053987;23;20453;-93
2022/01/09 08:50:05;;;;;;;4.72;1.63;;;9.50;76.90;;;;;;6033035;23;20014;-93
2022/01/09 08:52:31;;;;;;;3.60;1.42;;;9.10;76.40;;;;;;6054012;23;20037;-92
2022/01/09 08:54:56;;;;;;;7.18;1.92;;;9.20;77.10;;;;;;6008477;23;20038;-93
2022/01/09 08:57:25;;;;;;;3.92;1.30;;;9.10;76.40;;;;;;6081095;23;20516;-93
2022/01/09 08:59:50;;;;;;;7.32;1.73;;;9.40;76.60;;;;;;6133082;23;20379;-94
2022/01/09 09:02:16;;;;;;;6.40;1.25;;;9.50;76.60;;;;;;6132062;23;20564;-92
2022/01/09 09:04:42;;;;;;;4.22;1.67;;;9.40;76.60;;;;;;6134062;23;20469;-94
2022/01/09 09:07:08;;;;;;;8.13;1.40;;;9.20;76.40;;;;;;6131567;23;20058;-94
2022/01/09 09:09:34;;;;;;;7.43;1.55;;;9.50;76.60;;;;;;6059545;23;20093;-93
2022/01/09 09:12:01;;;;;;;5.45;1.52;;;9.20;76.40;;;;;;6085600;23;20405;-93
2022/01/09 09:14:27;;;;;;;5.47;1.52;;;9.20;76.40;;;;;;6086426;23;20046;-93
2022/01/09 09:16:52;;;;;;;10.85;1.90;;;9.20;76.40;;;;;;6060329;23;20018;-93
2022/01/09 09:19:18;;;;;;;6.47;2.03;;;9.20;76.40;;;;;;6084844;23;20013;-94
2022/01/09 09:21:46;;;;;;;6.15;1.80;;;9.30;76.40;;;;;;6061805;23;20022;-93
2022/01/09 09:24:13;;;;;;;7.57;2.05;;;9.30;76.40;;;;;;6083823;23;20013;-93
2022/01/09 09:26:39;;;;;;;7.63;1.50;;;9.10;76.30;;;;;;6084301;23;20024;-93
2022/01/09 09:29:08;;;;;;;5.00;1.20;;;9.20;76.30;;;;;;6082433;23;20013;-92
2022/01/09 09:31:34;;;;;;;9.23;2.00;;;9.30;76.40;;;;;;6059878;23;20060;-91
2022/01/09 09:34:00;;;;;;;7.82;2.05;;;9.30;76.40;;;;;;6084155;23;20010;-88
2022/01/09 09:36:26;;;;;;;7.40;1.70;;;9.30;76.50;;;;;;6060318;23;20066;-91
2022/01/09 09:38:53;;;;;;;7.53;1.58;;;9.20;76.30;;;;;;6082855;23;20383;-91
2022/01/09 09:41:23;;;;;;;3.70;1.42;;;9.60;76.70;;;;;;6037444;23;20014;-92
2022/01/09 09:43:51;;;;;;;6.30;1.67;;;9.30;76.70;;;;;;6036100;23;20032;-91
2022/01/09 09:46:17;;;;;;;5.82;1.77;;;9.20;76.60;;;;;;6060894;23;20020;-90
2022/01/09 09:48:42;;;;;;;4.82;1.60;;;9.20;76.70;;;;;;6088958;23;20105;-92
2022/01/09 09:51:08;;;;;;;3.85;1.70;;;9.20;76.80;;;;;;6067160;23;20041;-91
2022/01/09 09:53:34;;;;;;;9.10;2.20;;;9.30;76.90;;;;;;6064702;23;20014;-90
2022/01/09 09:56:00;;;;;;;5.82;1.75;;;9.50;77.00;;;;;;6063253;23;20012;-91
2022/01/09 09:58:27;;;;;;;9.13;2.40;;;9.30;76.90;;;;;;6064836;23;20453;-91
2022/01/09 10:00:57;;;;;;;11.18;1.90;;;9.80;77.30;;;;;;6061896;23;20457;-90
2022/01/09 10:03:32;;;;;;;8.07;2.03;;;9.30;76.90;;;;;;6065463;23;20016;-91
2022/01/09 10:05:58;;;;;;;4.85;1.40;;;9.70;77.20;;;;;;6070727;23;20074;-91
2022/01/09 10:08:39;;;;;;;6.78;2.42;;;9.30;77.50;;;;;;6069088;23;20006;-91
2022/01/09 10:11:17;;;;;;;4.72;1.25;;;9.60;77.10;;;;;;6046689;23;20022;-91
2022/01/09 10:13:45;;;;;;;4.95;1.55;;;9.30;76.90;;;;;;6044212;23;20006;-91
2022/01/09 10:16:13;;;;;;;5.22;2.33;;;9.40;77.00;;;;;;6060304;23;20022;-91
2022/01/09 10:18:49;;;;;;;6.15;2.50;;;9.30;77.00;;;;;;6063730;23;20006;-91
2022/01/09 10:21:17;;;;;;;11.38;2.55;;;9.40;77.10;;;;;;6062752;23;20018;-91
2022/01/09 10:24:06;;;;;;;7.22;2.05;;;9.50;77.10;;;;;;6110327;23;20014;-90
2022/01/09 10:26:40;;;;;;;5.20;1.88;;;9.40;77.10;;;;;;6111423;23;20026;-90
2022/01/09 10:29:08;;;;;;;5.95;2.50;;;9.50;77.20;;;;;;6039992;23;20014;-91
2022/01/09 10:31:50;;;;;;;8.57;3.00;;;9.50;77.30;;;;;;6035048;23;20521;-91
2022/01/09 10:34:16;;;;;;;12.23;3.33;;;9.40;77.90;;;;;;6060808;23;20009;-85
2022/01/09 10:36:49;;;;;;;12.90;3.85;;;9.30;77.30;;;;;;6037429;23;20020;-85
2022/01/09 10:39:30;;;;;;;12.77;1.77;;;9.40;77.40;;;;;;6062407;23;20010;-90
2022/01/09 10:41:59;;;;;;;7.13;1.40;;;9.40;77.50;;;;;;6063317;23;20014;-90
2022/01/09 10:44:31;;;;;;;8.85;2.15;;;9.40;77.60;;;;;;6063623;23;20759;-90
2022/01/09 10:47:04;;;;;;;8.88;2.95;;;9.60;77.70;;;;;;6063470;23;20449;-93
2022/01/09 10:49:48;;;;;;;7.28;2.33;;;9.40;77.60;;;;;;6063680;23;20006;-91
2022/01/09 10:52:19;;;;;;;9.23;2.60;;;9.50;77.70;;;;;;6060352;23;20014;-90
2022/01/09 10:54:47;;;;;;;5.90;2.20;;;9.50;77.70;;;;;;6085062;23;20033;-91
2022/01/09 10:57:24;;;;;;;6.30;2.70;;;9.50;77.70;;;;;;6039023;23;20029;-93
2022/01/09 10:59:50;;;;;;;8.82;2.05;;;9.50;77.80;;;;;;6061197;23;20030;-91
2022/01/09 11:02:17;;;;;;;4.22;1.20;;;9.80;78.00;;;;;;6037928;23;20044;-90
2022/01/09 11:04:46;;;;;;;8.77;1.65;;;9.50;77.90;;;;;;6062152;23;20381;-92
2022/01/09 11:07:13;;;;;;;9.13;1.40;;;9.50;77.90;;;;;;6059732;23;20022;-91
2022/01/09 11:09:43;;;;;;;7.13;1.30;;;9.50;78.00;;;;;;6036693;23;20016;-92
2022/01/09 11:12:10;;;;;;;6.57;1.60;;;9.60;78.10;;;;;;6062503;23;20488;-92
2022/01/09 11:14:41;;;;;;;7.70;1.50;;;9.50;78.10;;;;;;6059264;23;20005;-91
2022/01/09 11:17:08;;;;;;;9.85;1.92;;;9.60;78.20;;;;;;6036735;23;20036;-91
2022/01/09 11:19:35;;;;;;;9.48;2.20;;;9.60;78.20;;;;;;6038641;23;20426;-90
2022/01/09 11:22:10;;;;;;;10.90;2.08;;;9.60;78.20;;;;;;6037052;23;20449;-90
2022/01/09 11:25:38;;;;;;;2.90;0.68;;;9.60;78.20;;;;;;6036956;23;20657;-90
2022/01/09 11:28:20;;;;;;;7.38;2.13;;;9.60;78.20;;;;;;6065789;23;20041;-89
2022/01/09 11:31:15;;;;;;;11.68;4.57;;;9.60;78.10;;;;;;6060199;23;20013;-89
2022/01/09 11:34:02;;;;;;;8.55;2.80;;;9.70;78.20;;;;;;6067576;23;20017;-90
2022/01/09 11:36:35;;;;;;;5.75;1.52;;;9.70;78.20;;;;;;6036718;23;20010;-90
2022/01/09 11:39:16;;;;;;;6.43;1.80;;;9.70;78.10;;;;;;6083126;23;20010;-89
2022/01/09 11:41:44;;;;;;;6.43;1.40;;;9.70;78.20;;;;;;6040426;23;20046;-90
2022/01/09 11:44:15;;;;;;;7.25;1.30;;;9.70;78.20;;;;;;6037683;23;20021;-91
2022/01/09 11:47:07;;;;;;;6.65;1.30;;;10.10;78.40;;;;;;6037549;23;20090;-90
2022/01/09 11:50:00;;;;;;;4.80;1.17;;;9.80;78.30;;;;;;6060615;23;20014;-89
2022/01/09 11:52:28;;;;;;;10.30;1.25;;;9.80;78.30;;;;;;6054036;23;20029;-90
2022/01/09 11:55:00;;;;;;;7.53;1.48;;;9.80;78.30;;;;;;6033783;23;20006;-90
2022/01/09 11:57:44;;;;;;;6.10;1.23;;;9.80;78.30;;;;;;6036700;23;20014;-91
2022/01/09 12:00:30;;;;;;;8.77;2.05;;;10.00;78.40;;;;;;6109595;23;20286;-90
2022/01/09 12:02:57;;;;;;;8.65;2.25;;;10.10;78.40;;;;;;6084721;23;20449;-90
2022/01/09 12:05:23;;;;;;;4.57;2.30;;;9.90;78.40;;;;;;6058494;23;20048;-90
2022/01/09 12:07:48;;;;;;;6.72;1.15;;;10.10;78.40;;;;;;6059671;23;20089;-90
2022/01/09 12:10:17;;;;;;;9.27;1.55;;;9.90;78.30;;;;;;6110599;23;20010;-90
2022/01/09 12:12:43;;;;;;;6.00;1.13;;;9.90;78.30;;;;;;6108950;23;20097;-91
2022/01/09 12:15:09;;;;;;;8.90;1.63;;;9.90;78.20;;;;;;6060741;23;20020;-90
2022/01/09 12:17:39;;;;;;;6.43;1.33;;;9.90;78.20;;;;;;6060193;23;20461;-90
2022/01/09 12:20:14;;;;;;;8.45;1.00;;;10.00;78.80;;;;;;6109065;23;20017;-91
2022/01/09 12:22:44;;;;;;;4.60;1.35;;;10.00;78.30;;;;;;6106886;23;20454;-90
2022/01/09 12:25:22;;;;;;;13.02;3.38;;;10.00;78.20;;;;;;6108237;23;20092;-90
2022/01/09 12:28:10;;;;;;;7.90;1.65;;;10.00;78.20;;;;;;6108378;23;20053;-92
2022/01/09 12:30:38;;;;;;;4.10;1.48;;;10.00;78.20;;;;;;6063923;23;20721;-90
2022/01/09 12:33:28;;;;;;;6.80;1.50;;;10.00;78.10;;;;;;6106873;23;20560;-90
2022/01/09 12:36:17;;;;;;;9.10;1.60;;;10.00;78.20;;;;;;6060915;23;20021;-90
2022/01/09 12:38:51;;;;;;;8.43;1.40;;;10.00;78.20;;;;;;6082248;23;20088;-91
2022/01/09 12:41:33;;;;;;;8.43;1.60;;;10.10;78.20;;;;;;6060024;23;20006;-91
2022/01/09 12:44:01;;;;;;;6.20;1.55;;;10.10;78.20;;;;;;6058153;23;20009;-90
2022/01/09 12:46:29;;;;;;;1.05;0.55;;;10.10;78.20;;;;;;6058380;23;20387;-90
2022/01/09 12:49:03;;;;;;;5.50;0.98;;;10.10;78.20;;;;;;6059536;23;20006;-90
2022/01/09 12:51:30;;;;;;;8.35;1.70;;;10.20;78.20;;;;;;6085191;23;20021;-90
2022/01/09 12:54:03;;;;;;;10.77;3.78;;;10.60;78.40;;;;;;6074317;23;20017;-90
2022/01/09 12:56:32;;;;;;;10.88;2.63;;;10.20;78.10;;;;;;6108238;23;20006;-91
2022/01/09 12:59:08;;;;;;;10.13;3.63;;;10.20;78.10;;;;;;6110026;23;20010;-90
2022/01/09 13:01:46;;;;;;;11.10;4.22;;;10.40;78.30;;;;;;6100376;23;20021;-90
2022/01/09 13:04:25;;;;;;;6.63;3.13;;;10.60;78.30;;;;;;6056550;23;20053;-90
2022/01/09 13:06:55;;;;;;;7.63;2.33;;;10.20;77.70;;;;;;6032931;23;20010;-90